Ship Status Report: callsign BAREU51

sailwx.info

Track history (hours):
 
Tides and Currents Weather Stations Pressure Air Temp Water Temp Dewpoint Dewpoint Depression Visibility Wind Speed Wind Dir Waves Ship Positions

Callsign BAREU51 (name unknown)

Last reported at 2014-Oct-01 04:00 UTC. Time now 2014-Oct-01 05:58 UTC.
Position N 42°24' E 010°36'.

Barometer 1022.9 mb
Air temperature 22.3 ° C

Date/timePositionNaut miles runAvg speedWind from/ knotsBaromVisibWave heightAir tempDewpointWater temp
2014-Oct-01 04:00N 42°24' E 010°36'2121.4 1022.9 22.3
2014-Oct-01 03:00N 42°36' E 010°12'2020.0 1023.1 22.1
2014-Oct-01 02:00N 42°54' E 010°00'2625.5 1022.9 22.4
2014-Oct-01 01:00N 43°18' E 009°48'2020.0 1023.5 22.5
2014-Oct-01 00:00N 43°36' E 009°36'2222.2 1025.6 22.2
2014-Sep-30 23:00N 43°54' E 009°18'2020.0 1029.5 20.8
2014-Sep-30 22:00N 44°12' E 009°06'7 1.2 1025.5 18.8
2014-Sep-30 16:00N 44°18' E 009°00'2020.0 1025.8 22.1
2014-Sep-30 15:00N 44°00' E 009°12'2222.2 1025.6 22.8
2014-Sep-30 14:00N 43°42' E 009°30'2727.3 1025.9 23.2
2014-Sep-30 13:00N 43°18' E 009°48'2020.0 1025.8 23.5
2014-Sep-30 12:00N 43°00' E 010°00'1918.5 1026.6 25.0
2014-Sep-30 11:00N 42°42' E 010°06'2525.2 1027.2 24.6
2014-Sep-30 10:00N 42°24' E 010°30'2222.4 1027.3 24.8
2014-Sep-30 09:00N 42°06' E 010°48'2625.6 1027.8 24.4
2014-Sep-30 08:00N 41°42' E 011°00'2020.1 1027.6 23.3
2014-Sep-30 07:00N 41°24' E 011°12'2827.6 1026.7 22.7
2014-Sep-30 06:00N 41°00' E 011°30'2020.2 1026.5 22.6
2014-Sep-30 05:00N 40°42' E 011°42'2827.6 1026.3 22.1
2014-Sep-30 04:00N 40°18' E 012°00'4823.9 1026.2 21.9
2014-Sep-30 02:00N 39°36' E 012°30'2625.7 1026.4 21.8
2014-Sep-30 01:00N 39°12' E 012°42'2625.7 1026.5 22.1
2014-Sep-30 00:00N 38°48' E 012°54'2322.8 1027.0 22.2
2014-Sep-29 23:00N 38°30' E 013°12'2625.8 1027.1 22.4
2014-Sep-29 22:00N 38°06' E 013°24'0 0.0 1027.6 21.2
2014-Sep-29 10:00N 38°06' E 013°24'0 0.0 1028.3 27.0
2014-Sep-28 16:00N 38°06' E 013°24'1918.6 1025.0 22.9
2014-Sep-28 15:00N 38°24' E 013°18'2322.9 1024.6 23.6
2014-Sep-28 14:00N 38°42' E 013°00'2020.3 1025.1 24.0
2014-Sep-28 13:00N 39°00' E 012°48'2625.7 1025.2 23.8
2014-Sep-28 12:00N 39°24' E 012°36'2020.2 1025.7 24.6
2014-Sep-28 11:00N 39°42' E 012°24'2322.7 1025.7 24.1
2014-Sep-28 10:00N 40°00' E 012°06'2625.7 1026.2 24.2
2014-Sep-28 09:00N 40°24' E 011°54'2020.2 1026.2 23.9
2014-Sep-28 08:00N 40°42' E 011°42'2827.6 1025.7 23.5
2014-Sep-28 07:00N 41°06' E 011°24'2020.1 1025.4 23.0
2014-Sep-28 06:00N 41°24' E 011°12'2020.1 1024.9 22.4
2014-Sep-28 05:00N 41°42' E 011°00'2727.5 1024.7 22.0
2014-Sep-28 04:00N 42°06' E 010°42'4522.4 1024.9 22.2
2014-Sep-28 02:00N 42°42' E 010°06'1918.5 1025.6 22.3
2014-Sep-28 01:00N 43°00' E 010°00'2625.5 1026.1 21.5
2014-Sep-28 00:00N 43°24' E 009°48'2222.2 1026.0 21.5
2014-Sep-27 23:00N 43°42' E 009°30'2222.2 1026.2 21.1
2014-Sep-27 22:00N 44°00' E 009°12'2020.0 1026.4 21.1
2014-Sep-27 21:00N 44°18' E 009°00'7 1.8 1026.6 20.4
2014-Sep-27 17:00N 44°24' E 008°54'0 0.0 1025.3 21.9
2014-Sep-27 16:00N 44°24' E 008°54'1514.8 1025.3 23.3
2014-Sep-27 15:00N 44°12' E 009°06'2020.0 1025.0 22.8
2014-Sep-27 14:00N 43°54' E 009°18'2727.3 1025.2 23.3
2014-Sep-27 13:00N 43°30' E 009°36'2222.3 1025.1 23.1
2014-Sep-27 12:00N 43°12' E 009°54'1918.5 1025.2 23.4
2014-Sep-27 11:00N 42°54' E 010°00'2222.3 1025.4 23.5
2014-Sep-27 10:00N 42°36' E 010°18'2525.3 1025.5 23.4
2014-Sep-27 09:00N 42°18' E 010°42'2222.4 1024.4 22.0
2014-Sep-27 08:00N 42°00' E 011°00'2625.6 1024.4 22.8
2014-Sep-27 07:00N 41°36' E 011°12'2827.5 1023.2 22.4
2014-Sep-27 06:00N 41°12' E 011°30'2625.7 1022.2 21.6
2014-Sep-27 05:00N 40°48' E 011°42'2322.6 1021.5 22.3
2014-Sep-27 04:00N 40°30' E 012°00'2625.7 1021.8 21.7
2014-Sep-27 03:00N 40°06' E 012°12'2827.7 1021.4 21.9
2014-Sep-27 02:00N 39°42' E 012°30'2020.2 1020.6 22.3
2014-Sep-27 01:00N 39°24' E 012°42'2827.8 1020.2 22.8
2014-Sep-27 00:00N 39°00' E 013°00'2424.5 1019.9 22.8
2014-Sep-26 23:00N 38°36' E 013°06'2322.9 1019.5 23.1
2014-Sep-26 22:00N 38°18' E 013°24'12 2.0 1019.5 23.3
2014-Sep-26 16:00N 38°06' E 013°24'1918.6 1018.6 23.9
2014-Sep-26 15:00N 38°24' E 013°18'2322.9 1018.9 25.7
2014-Sep-26 14:00N 38°42' E 013°00'2020.3 1019.1 26.1
2014-Sep-26 13:00N 39°00' E 012°48'2625.7 1019.5 26.7
2014-Sep-26 12:00N 39°24' E 012°36'2020.2 1019.4 26.1
2014-Sep-26 11:00N 39°42' E 012°24'2827.7 1019.7 25.6
2014-Sep-26 10:00N 40°06' E 012°06'2827.6 1019.5 24.7
2014-Sep-26 09:00N 40°30' E 011°48'2625.7 1019.7 24.1
2014-Sep-26 08:00N 40°54' E 011°36'2322.5 1019.5 22.8
2014-Sep-26 07:00N 41°12' E 011°18'2625.6 1018.8 22.0
2014-Sep-26 06:00N 41°36' E 011°06'2727.5 1018.3 20.0
2014-Sep-26 05:00N 42°00' E 010°48'2020.1 1018.2 20.0
2014-Sep-26 04:00N 42°18' E 010°36'2525.3 1018.3 19.5
2014-Sep-26 03:00N 42°36' E 010°12'2625.6 1018.1 20.1
2014-Sep-26 02:00N 43°00' E 010°00'2020.0 1019.2 20.0
2014-Sep-26 01:00N 43°18' E 009°48'2727.3 1018.6 21.0
2014-Sep-26 00:00N 43°42' E 009°30'2222.2 1019.6 21.3
2014-Sep-25 23:00N 44°00' E 009°12'2727.2 1019.3 20.9
2014-Sep-25 22:00N 44°24' E 008°54'0 0.0 1019.7 18.7
2014-Sep-25 17:00N 44°24' E 008°54'7 7.4 1016.5 21.9
2014-Sep-25 16:00N 44°18' E 009°00'2727.3 1015.7 22.0
2014-Sep-25 15:00N 43°54' E 009°18'2020.0 1015.6 21.8
2014-Sep-25 14:00N 43°36' E 009°30'2222.2 1015.4 22.1
2014-Sep-25 13:00N 43°18' E 009°48'2020.0 1015.6 21.9
2014-Sep-25 12:00N 43°00' E 010°00'2020.0 1014.7 20.8
2014-Sep-25 11:00N 42°42' E 010°12'2525.2 1015.7 22.8
2014-Sep-25 10:00N 42°24' E 010°36'2625.6 1015.3 21.8
2014-Sep-25 09:00N 42°00' E 010°48'2727.5 1016.1 24.2
2014-Sep-25 08:00N 41°36' E 011°06'2020.1 1015.8 23.4
2014-Sep-25 07:00N 41°18' E 011°18'2827.6 1015.2 22.9
2014-Sep-25 06:00N 40°54' E 011°36'2625.7 1014.7 22.8
2014-Sep-25 05:00N 40°30' E 011°48'2020.2 1013.9 22.7
2014-Sep-25 04:00N 40°12' E 012°00'2322.7 1013.8 21.3
2014-Sep-25 03:00N 39°54' E 012°18'2625.7 1014.2 20.8
2014-Sep-25 02:00N 39°30' E 012°30'2020.3 1008.4 19.3
2014-Sep-25 01:00N 39°12' E 012°42'5326.7 1014.3 24.5
2014-Sep-24 23:00N 38°24' E 013°12'2020.3 1016.6 24.6
2014-Sep-24 22:00N 38°06' E 013°24'6 1.0 1017.3 24.5
2014-Sep-24 16:00N 38°12' E 013°24'2020.3 1016.4 25.4
2014-Sep-24 15:00N 38°30' E 013°12'2322.8 1016.6 25.0
2014-Sep-24 14:00N 38°48' E 012°54'2625.7 1016.4 25.2
2014-Sep-24 13:00N 39°12' E 012°42'2020.3 1016.8 25.3
2014-Sep-24 12:00N 39°30' E 012°30'2625.7 1017.0 24.8
2014-Sep-24 11:00N 39°54' E 012°18'2322.7 1017.1 24.6
2014-Sep-24 10:00N 40°12' E 012°00'5326.6 1017.1 24.1
2014-Sep-24 08:00N 41°00' E 011°30'2020.1 1009.7 18.8
2014-Sep-24 07:00N 41°18' E 011°18'2827.5 1015.4 19.9
2014-Sep-24 06:00N 41°42' E 011°00'2020.1 1014.0 19.9
2014-Sep-24 05:00N 42°00' E 010°48'2020.1 1013.9 20.5
2014-Sep-24 04:00N 42°18' E 010°36'2525.3 1015.1 20.6
2014-Sep-24 03:00N 42°36' E 010°12'2020.0 1015.0 20.7
2014-Sep-24 02:00N 42°54' E 010°00'2625.5 1015.9 20.7
2014-Sep-24 01:00N 43°18' E 009°48'2020.0 1016.1 20.3
2014-Sep-24 00:00N 43°36' E 009°36'2222.2 1016.2 20.6
2014-Sep-23 23:00N 43°54' E 009°18'2020.0 1017.0 20.6
2014-Sep-23 22:00N 44°12' E 009°06'42 5.2 1017.5 20.6
2014-Sep-23 14:00N 43°36' E 009°36'2020.0 1016.0 22.5
2014-Sep-23 13:00N 43°18' E 009°48'2020.0 1016.3 23.3
2014-Sep-23 12:00N 43°00' E 010°00'1918.5 1016.2 22.6
2014-Sep-23 11:00N 42°42' E 010°06'2525.2 1014.0 21.6
2014-Sep-23 10:00N 42°24' E 010°30'2020.1 1014.7 21.1
2014-Sep-23 09:00N 42°06' E 010°42'2727.5 1012.5 20.8
2014-Sep-23 08:00N 41°42' E 011°00'2020.1 1011.5 20.1
2014-Sep-23 07:00N 41°24' E 011°12'2020.1 1011.4 22.8
2014-Sep-23 06:00N 41°06' E 011°24'2827.6 1010.8 22.8
2014-Sep-23 05:00N 40°42' E 011°42'2625.7 1009.3 23.6
2014-Sep-23 04:00N 40°18' E 011°54'2322.7 1008.8 23.5
2014-Sep-23 03:00N 40°00' E 012°12'2625.7 1009.5 24.3
2014-Sep-23 02:00N 39°36' E 012°24'2827.7 1009.9 24.5
2014-Sep-23 01:00N 39°12' E 012°42'4824.0 1010.2 24.4
2014-Sep-22 23:00N 38°30' E 013°12'2020.3 1010.6 25.1
2014-Sep-22 22:00N 38°12' E 013°24'0 0.0 1011.1 25.5
2014-Sep-21 16:00N 38°12' E 013°24'4321.5 1016.0 29.1
2014-Sep-21 14:00N 38°48' E 012°54'2625.7 1015.3 26.0
2014-Sep-21 13:00N 39°12' E 012°42'2020.3 1015.7 25.7
2014-Sep-21 12:00N 39°30' E 012°30'2625.7 1017.4 25.9
2014-Sep-21 11:00N 39°54' E 012°18'2322.7 1018.3 26.2
2014-Sep-21 10:00N 40°12' E 012°00'4823.9 1016.3 26.2
2014-Sep-21 08:00N 40°54' E 011°30'2020.1 1019.9 25.9
2014-Sep-21 07:00N 41°12' E 011°18'2625.6 1019.9 24.7
2014-Sep-21 06:00N 41°36' E 011°06'2020.1 1017.4 23.3
2014-Sep-21 05:00N 41°54' E 010°54'2727.5 1016.3 23.4
2014-Sep-21 04:00N 42°18' E 010°36'   1016.3 23.3
Track history (hours):
 
Tides and Currents Weather Stations Pressure Air Temp Water Temp Dewpoint Dewpoint Depression Visibility Wind Speed Wind Dir Waves Ship Positions

Callsign BAREU51 (name unknown)

Last reported at 2014-Oct-01 04:00 UTC. Time now 2014-Oct-01 05:58 UTC.
Position N 42°24' E 010°36'.

Barometer 1022.9 mb
Air temperature 22.3 ° C

Date/timePositionNaut miles runAvg speedWind from/ knotsBaromVisibWave heightAir tempDewpointWater temp
2014-Oct-01 04:00N 42°24' E 010°36'2121.4 1022.9 22.3
2014-Oct-01 03:00N 42°36' E 010°12'2020.0 1023.1 22.1
2014-Oct-01 02:00N 42°54' E 010°00'2625.5 1022.9 22.4
2014-Oct-01 01:00N 43°18' E 009°48'2020.0 1023.5 22.5
2014-Oct-01 00:00N 43°36' E 009°36'2222.2 1025.6 22.2
2014-Sep-30 23:00N 43°54' E 009°18'2020.0 1029.5 20.8
2014-Sep-30 22:00N 44°12' E 009°06'7 1.2 1025.5 18.8
2014-Sep-30 16:00N 44°18' E 009°00'2020.0 1025.8 22.1
2014-Sep-30 15:00N 44°00' E 009°12'2222.2 1025.6 22.8
2014-Sep-30 14:00N 43°42' E 009°30'2727.3 1025.9 23.2
2014-Sep-30 13:00N 43°18' E 009°48'2020.0 1025.8 23.5
2014-Sep-30 12:00N 43°00' E 010°00'1918.5 1026.6 25.0
2014-Sep-30 11:00N 42°42' E 010°06'2525.2 1027.2 24.6
2014-Sep-30 10:00N 42°24' E 010°30'2222.4 1027.3 24.8
2014-Sep-30 09:00N 42°06' E 010°48'2625.6 1027.8 24.4
2014-Sep-30 08:00N 41°42' E 011°00'2020.1 1027.6 23.3
2014-Sep-30 07:00N 41°24' E 011°12'2827.6 1026.7 22.7
2014-Sep-30 06:00N 41°00' E 011°30'2020.2 1026.5 22.6
2014-Sep-30 05:00N 40°42' E 011°42'2827.6 1026.3 22.1
2014-Sep-30 04:00N 40°18' E 012°00'4823.9 1026.2 21.9
2014-Sep-30 02:00N 39°36' E 012°30'2625.7 1026.4 21.8
2014-Sep-30 01:00N 39°12' E 012°42'2625.7 1026.5 22.1
2014-Sep-30 00:00N 38°48' E 012°54'2322.8 1027.0 22.2
2014-Sep-29 23:00N 38°30' E 013°12'2625.8 1027.1 22.4
2014-Sep-29 22:00N 38°06' E 013°24'0 0.0 1027.6 21.2
2014-Sep-29 10:00N 38°06' E 013°24'0 0.0 1028.3 27.0
2014-Sep-28 16:00N 38°06' E 013°24'1918.6 1025.0 22.9
2014-Sep-28 15:00N 38°24' E 013°18'2322.9 1024.6 23.6
2014-Sep-28 14:00N 38°42' E 013°00'2020.3 1025.1 24.0
2014-Sep-28 13:00N 39°00' E 012°48'2625.7 1025.2 23.8
2014-Sep-28 12:00N 39°24' E 012°36'2020.2 1025.7 24.6
2014-Sep-28 11:00N 39°42' E 012°24'2322.7 1025.7 24.1
2014-Sep-28 10:00N 40°00' E 012°06'2625.7 1026.2 24.2
2014-Sep-28 09:00N 40°24' E 011°54'2020.2 1026.2 23.9
2014-Sep-28 08:00N 40°42' E 011°42'2827.6 1025.7 23.5
2014-Sep-28 07:00N 41°06' E 011°24'2020.1 1025.4 23.0
2014-Sep-28 06:00N 41°24' E 011°12'2020.1 1024.9 22.4
2014-Sep-28 05:00N 41°42' E 011°00'2727.5 1024.7 22.0
2014-Sep-28 04:00N 42°06' E 010°42'4522.4 1024.9 22.2
2014-Sep-28 02:00N 42°42' E 010°06'1918.5 1025.6 22.3
2014-Sep-28 01:00N 43°00' E 010°00'2625.5 1026.1 21.5
2014-Sep-28 00:00N 43°24' E 009°48'2222.2 1026.0 21.5
2014-Sep-27 23:00N 43°42' E 009°30'2222.2 1026.2 21.1
2014-Sep-27 22:00N 44°00' E 009°12'2020.0 1026.4 21.1
2014-Sep-27 21:00N 44°18' E 009°00'7 1.8 1026.6 20.4
2014-Sep-27 17:00N 44°24' E 008°54'0 0.0 1025.3 21.9
2014-Sep-27 16:00N 44°24' E 008°54'1514.8 1025.3 23.3
2014-Sep-27 15:00N 44°12' E 009°06'2020.0 1025.0 22.8
2014-Sep-27 14:00N 43°54' E 009°18'2727.3 1025.2 23.3
2014-Sep-27 13:00N 43°30' E 009°36'2222.3 1025.1 23.1
2014-Sep-27 12:00N 43°12' E 009°54'1918.5 1025.2 23.4
2014-Sep-27 11:00N 42°54' E 010°00'2222.3 1025.4 23.5
2014-Sep-27 10:00N 42°36' E 010°18'2525.3 1025.5 23.4
2014-Sep-27 09:00N 42°18' E 010°42'2222.4 1024.4 22.0
2014-Sep-27 08:00N 42°00' E 011°00'2625.6 1024.4 22.8
2014-Sep-27 07:00N 41°36' E 011°12'2827.5 1023.2 22.4
2014-Sep-27 06:00N 41°12' E 011°30'2625.7 1022.2 21.6
2014-Sep-27 05:00N 40°48' E 011°42'2322.6 1021.5 22.3
2014-Sep-27 04:00N 40°30' E 012°00'2625.7 1021.8 21.7
2014-Sep-27 03:00N 40°06' E 012°12'2827.7 1021.4 21.9
2014-Sep-27 02:00N 39°42' E 012°30'2020.2 1020.6 22.3
2014-Sep-27 01:00N 39°24' E 012°42'2827.8 1020.2 22.8
2014-Sep-27 00:00N 39°00' E 013°00'2424.5 1019.9 22.8
2014-Sep-26 23:00N 38°36' E 013°06'2322.9 1019.5 23.1
2014-Sep-26 22:00N 38°18' E 013°24'12 2.0 1019.5 23.3
2014-Sep-26 16:00N 38°06' E 013°24'1918.6 1018.6 23.9
2014-Sep-26 15:00N 38°24' E 013°18'2322.9 1018.9 25.7
2014-Sep-26 14:00N 38°42' E 013°00'2020.3 1019.1 26.1
2014-Sep-26 13:00N 39°00' E 012°48'2625.7 1019.5 26.7
2014-Sep-26 12:00N 39°24' E 012°36'2020.2 1019.4 26.1
2014-Sep-26 11:00N 39°42' E 012°24'2827.7 1019.7 25.6
2014-Sep-26 10:00N 40°06' E 012°06'2827.6 1019.5 24.7
2014-Sep-26 09:00N 40°30' E 011°48'2625.7 1019.7 24.1
2014-Sep-26 08:00N 40°54' E 011°36'2322.5 1019.5 22.8
2014-Sep-26 07:00N 41°12' E 011°18'2625.6 1018.8 22.0
2014-Sep-26 06:00N 41°36' E 011°06'2727.5 1018.3 20.0
2014-Sep-26 05:00N 42°00' E 010°48'2020.1 1018.2 20.0
2014-Sep-26 04:00N 42°18' E 010°36'2525.3 1018.3 19.5
2014-Sep-26 03:00N 42°36' E 010°12'2625.6 1018.1 20.1
2014-Sep-26 02:00N 43°00' E 010°00'2020.0 1019.2 20.0
2014-Sep-26 01:00N 43°18' E 009°48'2727.3 1018.6 21.0
2014-Sep-26 00:00N 43°42' E 009°30'2222.2 1019.6 21.3
2014-Sep-25 23:00N 44°00' E 009°12'2727.2 1019.3 20.9
2014-Sep-25 22:00N 44°24' E 008°54'0 0.0 1019.7 18.7
2014-Sep-25 17:00N 44°24' E 008°54'7 7.4 1016.5 21.9
2014-Sep-25 16:00N 44°18' E 009°00'2727.3 1015.7 22.0
2014-Sep-25 15:00N 43°54' E 009°18'2020.0 1015.6 21.8
2014-Sep-25 14:00N 43°36' E 009°30'2222.2 1015.4 22.1
2014-Sep-25 13:00N 43°18' E 009°48'2020.0 1015.6 21.9
2014-Sep-25 12:00N 43°00' E 010°00'2020.0 1014.7 20.8
2014-Sep-25 11:00N 42°42' E 010°12'2525.2 1015.7 22.8
2014-Sep-25 10:00N 42°24' E 010°36'2625.6 1015.3 21.8
2014-Sep-25 09:00N 42°00' E 010°48'2727.5 1016.1 24.2
2014-Sep-25 08:00N 41°36' E 011°06'2020.1 1015.8 23.4
2014-Sep-25 07:00N 41°18' E 011°18'2827.6 1015.2 22.9
2014-Sep-25 06:00N 40°54' E 011°36'2625.7 1014.7 22.8
2014-Sep-25 05:00N 40°30' E 011°48'2020.2 1013.9 22.7
2014-Sep-25 04:00N 40°12' E 012°00'2322.7 1013.8 21.3
2014-Sep-25 03:00N 39°54' E 012°18'2625.7 1014.2 20.8
2014-Sep-25 02:00N 39°30' E 012°30'2020.3 1008.4 19.3
2014-Sep-25 01:00N 39°12' E 012°42'5326.7 1014.3 24.5
2014-Sep-24 23:00N 38°24' E 013°12'2020.3 1016.6 24.6
2014-Sep-24 22:00N 38°06' E 013°24'6 1.0 1017.3 24.5
2014-Sep-24 16:00N 38°12' E 013°24'2020.3 1016.4 25.4
2014-Sep-24 15:00N 38°30' E 013°12'2322.8 1016.6 25.0
2014-Sep-24 14:00N 38°48' E 012°54'2625.7 1016.4 25.2
2014-Sep-24 13:00N 39°12' E 012°42'2020.3 1016.8 25.3
2014-Sep-24 12:00N 39°30' E 012°30'2625.7 1017.0 24.8
2014-Sep-24 11:00N 39°54' E 012°18'2322.7 1017.1 24.6
2014-Sep-24 10:00N 40°12' E 012°00'5326.6 1017.1 24.1
2014-Sep-24 08:00N 41°00' E 011°30'2020.1 1009.7 18.8
2014-Sep-24 07:00N 41°18' E 011°18'2827.5 1015.4 19.9
2014-Sep-24 06:00N 41°42' E 011°00'2020.1 1014.0 19.9
2014-Sep-24 05:00N 42°00' E 010°48'2020.1 1013.9 20.5
2014-Sep-24 04:00N 42°18' E 010°36'2525.3 1015.1 20.6
2014-Sep-24 03:00N 42°36' E 010°12'2020.0 1015.0 20.7
2014-Sep-24 02:00N 42°54' E 010°00'2625.5 1015.9 20.7
2014-Sep-24 01:00N 43°18' E 009°48'2020.0 1016.1 20.3
2014-Sep-24 00:00N 43°36' E 009°36'2222.2 1016.2 20.6
2014-Sep-23 23:00N 43°54' E 009°18'2020.0 1017.0 20.6
2014-Sep-23 22:00N 44°12' E 009°06'42 5.2 1017.5 20.6
2014-Sep-23 14:00N 43°36' E 009°36'2020.0 1016.0 22.5
2014-Sep-23 13:00N 43°18' E 009°48'2020.0 1016.3 23.3
2014-Sep-23 12:00N 43°00' E 010°00'1918.5 1016.2 22.6
2014-Sep-23 11:00N 42°42' E 010°06'2525.2 1014.0 21.6
2014-Sep-23 10:00N 42°24' E 010°30'2020.1 1014.7 21.1
2014-Sep-23 09:00N 42°06' E 010°42'2727.5 1012.5 20.8
2014-Sep-23 08:00N 41°42' E 011°00'2020.1 1011.5 20.1
2014-Sep-23 07:00N 41°24' E 011°12'2020.1 1011.4 22.8
2014-Sep-23 06:00N 41°06' E 011°24'2827.6 1010.8 22.8
2014-Sep-23 05:00N 40°42' E 011°42'2625.7 1009.3 23.6
2014-Sep-23 04:00N 40°18' E 011°54'2322.7 1008.8 23.5
2014-Sep-23 03:00N 40°00' E 012°12'2625.7 1009.5 24.3
2014-Sep-23 02:00N 39°36' E 012°24'2827.7 1009.9 24.5
2014-Sep-23 01:00N 39°12' E 012°42'4824.0 1010.2 24.4
2014-Sep-22 23:00N 38°30' E 013°12'2020.3 1010.6 25.1
2014-Sep-22 22:00N 38°12' E 013°24'0 0.0 1011.1 25.5
2014-Sep-21 16:00N 38°12' E 013°24'4321.5 1016.0 29.1
2014-Sep-21 14:00N 38°48' E 012°54'2625.7 1015.3 26.0
2014-Sep-21 13:00N 39°12' E 012°42'2020.3 1015.7 25.7
2014-Sep-21 12:00N 39°30' E 012°30'2625.7 1017.4 25.9
2014-Sep-21 11:00N 39°54' E 012°18'2322.7 1018.3 26.2
2014-Sep-21 10:00N 40°12' E 012°00'4823.9 1016.3 26.2
2014-Sep-21 08:00N 40°54' E 011°30'2020.1 1019.9 25.9
2014-Sep-21 07:00N 41°12' E 011°18'2625.6 1019.9 24.7
2014-Sep-21 06:00N 41°36' E 011°06'2020.1 1017.4 23.3
2014-Sep-21 05:00N 41°54' E 010°54'2727.5 1016.3 23.4
2014-Sep-21 04:00N 42°18' E 010°36'   1016.3 23.3

Dump ship's entire track history